x

Nantucket Sound (44020) Wave Buoy

6:50 - Mon 4th May 2015 All times are EDT. -4 hours from GMT.

  • Sig Wave height 1.0ft
  • Swell Direction
  • Peak Period 2s
  • Average Period 3s
  • Wind
    13mph, 16mph gusts
  • Sea Temp 47°f
  • Aire Temp 52°f
  • Sea Pressure 1023.8mb
  • Nantucket Sound
  • Nantucket Sound

More Historic Weather Station data

Upgrade to MSW Pro to gain access to the past 30 days of data for over 8000 Wavebouys and Weather Stations around the globe.

Join Pro

Comparision Forecast

View Surf forecast
   
lun 05/04 6:50 1ft 2s 3s 13 16 mph 1023.8mb 47f 52f
5:50 1ft 2s 3s 13 16 mph 1023.3mb 47f 51f
4:50 1ft 11s 4s 11 13 mph 1022.9mb 47f 51f
3:50 1ft 7s 4s 13
mph
1022.8mb 47f 51f
2:50 1.3ft 3s 3s 13 16 mph 1022.5mb 48f 51f
1:50 1.3ft 3s 4s 13 16 mph 1022.4mb 48f 51f
12:50 1.6ft 8s 4s 13 16 mph 1022.3mb 49f 51f
dom 05/03 11:50 1.3ft 8s 4s 16 18 mph 1021.9mb 49f 51f
10:50 1ft 8s 3s 13 16 mph 1022mb 49f 51f
9:50 1ft 3s 3s 11 13 mph 1022.3mb 49f 50f
8:50 1ft 3s 3s 11 13 mph 1021.8mb 48f 49f
7:50 1ft 2s 3s 13
mph
1021.3mb 48f 49f
6:50 1.3ft 3s 3s 11 13 mph 1021mb 47f 49f
5:50 1.3ft 3s 3s 13
mph
1020.6mb 47f 49f
4:50 1.3ft 3s 3s 13 16 mph 1020.3mb 47f 49f
3:50 1.3ft 3s 3s 13 16 mph 1020.4mb 48f 49f
2:50 1.3ft 6s 4s 13 16 mph 1020.5mb 47f 49f
1:50 1.6ft 3s 4s 13 16 mph 1020.3mb 48f 49f
12:50 1.6ft 3s 4s 13 16 mph 1020.1mb 49f 49f
11:50 1.3ft 7s 4s 11 13 mph 1020mb 49f 48f
10:50 1ft 7s 4s 13
mph
1019.8mb 48f 48f
9:50 0.7ft  -  4s 13 16 mph 1019.3mb 48f 48f
8:50 0.7ft  -  5s 11
mph
1019.5mb 47f 47f
7:50 0.7ft  -  5s 7 9 mph 1019.2mb 47f 47f
6:50 1ft 5s 5s 4 7 mph 1018.8mb 46f 48f
5:50 1ft 6s 5s 4
mph
1018.2mb 46f 46f
4:50 1ft 6s 5s 2
mph
1017.8mb 46f 46f
3:50 1ft 5s 5s 4
mph
1017.5mb 46f 45f
2:50 1.3ft 7s 5s 4 7 mph 1017.5mb 47f 45f
1:50 1.3ft 6s 4s 4 7 mph 1017.4mb 47f 45f
12:50 1.6ft 4s 4s 4 7 mph 1017.2mb 47f 44f
sáb 05/02 11:50 1.6ft 6s 5s  -  2 mph 1017.1mb 48f 43f
10:50 1.3ft 6s 5s 2
mph
1017mb 48f 43f
9:50 1ft 5s 4s  -  2 mph 1016.8mb 48f 43f
8:50 1ft 4s 4s 2 4 mph 1016.6mb 48f 42f
7:50 1ft 3s 4s 9 11 mph 1015.9mb 47f 40f
6:50 1.3ft 3s 4s 11 13 mph 1015.9mb 47f 41f
5:50 1.3ft 5s 4s 11 13 mph 1015.3mb 47f 42f
4:50 1.3ft 4s 4s 11 13 mph 1015.3mb 46f 43f
3:50 1.3ft 5s 4s 13
mph
1015.2mb 47f 43f
2:50 1.3ft 6s 4s 13 16 mph 1015.6mb 47f 43f
1:50 1.6ft 5s 4s 13 16 mph 1015.8mb 46f 43f
12:50 2ft 4s 4s 13 16 mph 1016.1mb 47f 43f
11:50 2ft 3s 4s 13 18 mph 1016.3mb 47f 43f
10:50 1.6ft 3s 4s 16 18 mph 1016mb 47f 43f
9:50 1.3ft 3s 3s 13 16 mph 1016.1mb 47f 43f
8:50 1ft 3s 3s 13 18 mph 1016.3mb 47f 42f
7:50 1ft 3s 3s 11 16 mph 1016.2mb 46f 42f
6:50 1.3ft 3s 3s 13 16 mph 1016.1mb 46f 41f
5:50 1.3ft 3s 4s 13 18 mph 1015.4mb 46f 41f
4:50 1.3ft 5s 4s 13 16 mph 1015.2mb 46f 41f
3:50 1.3ft 6s 3s 13 16 mph 1015mb 46f 41f
2:50 1.3ft 7s 4s 11 13 mph 1015.2mb 46f 41f
1:50 1.3ft 6s 4s 11 16 mph 1015.1mb 46f 41f
12:50 1.3ft 5s 4s 9 13 mph 1015.6mb 46f 41f
vie 05/01 11:50 1.6ft 6s 4s 11 13 mph 1015.8mb 47f 41f
10:50 1.6ft 4s 4s 13 18 mph 1015.7mb 47f 42f
9:50 1.3ft 3s 4s 11 13 mph 1016.1mb 47f 42f
8:50 1.3ft 3s 3s 11 13 mph 1015.9mb 47f 42f
7:50 1.6ft 4s 4s 13 16 mph 1015.6mb 46f 43f
6:50 1.6ft 3s 4s 16 18 mph 1015.1mb 46f 43f
5:50 1.6ft 3s 3s 16 20 mph 1015.1mb 46f 43f
4:50 2ft 3s 3s 18 22 mph 1014.6mb 46f 43f
3:50 2ft 3s 3s 16 18 mph 1015mb 46f 44f
2:50 2ft 3s 3s 18 22 mph 1015.1mb 46f 44f
1:50 2ft 3s 3s 18 20 mph 1015.5mb 46f 44f
12:50 2.5ft 3s 3s 16 18 mph 1015.6mb 46f 43f
11:50 2.5ft 3s 4s 18 22 mph 1015.6mb 47f 44f
10:50 2.5ft 3s 4s 18 22 mph 1015.3mb 47f 44f
9:50 2.5ft 3s 4s 20 22 mph 1014.8mb 47f 44f
8:50 2.5ft 4s 4s 18 22 mph 1014.8mb 47f 44f
7:50 2.5ft 4s 4s 18 20 mph 1014.7mb 47f 44f
6:50 2.5ft 4s 4s 18 22 mph 1014.3mb 46f 44f
5:50 2.5ft 4s 4s 20 22 mph 1013.6mb 46f 44f
4:50 2ft 3s 4s 22 27 mph 1013.1mb 46f 44f
3:50 2ft 3s 3s 20 22 mph 1013.3mb 46f 44f
2:50 1.6ft 3s 3s 20 22 mph 1012.9mb 46f 45f
1:50 1.6ft 3s 3s 16 18 mph 1013.5mb 46f 45f
12:50 1.3ft 5s 4s 16 18 mph 1013.8mb 46f 45f
jue 04/30 11:50 1.6ft 5s 4s 11 13 mph 1013.8mb 47f 45f
10:50 1.6ft 3s 3s 13 16 mph 1013.6mb 47f 45f
9:50 1.6ft 3s 3s 16 18 mph 1013.5mb 47f 45f
8:50 1.3ft 3s 3s 13 16 mph 1013.3mb 48f 46f
7:50 1.3ft 3s 3s 13 16 mph 1012.6mb 47f 46f
6:50 1.3ft 3s 3s 16 18 mph 1012mb 47f 46f
5:50 1.3ft 3s 3s 11 13 mph 1011.4mb 47f 47f
4:50 1.3ft 3s 3s 13 16 mph 1010.9mb 46f 47f
3:50 1.3ft 3s 4s 11 16 mph 1010.6mb 46f 48f
2:50 1.3ft 10s 4s 9 11 mph 1010.7mb 46f 48f
1:50 1ft 9s 5s 7 9 mph 1010.6mb 46f 48f
12:50 1ft 9s 5s 4 7 mph 1010.7mb 46f 47f